Figridge, Texas
Current Conditions -  °F | °C
As of 7:35 PM on Friday 24 Oct 2014 (Local Time) from KBMT Reporting Station
Clear Clear  
Wind Chill: 61°   Ceiling: Unl
Heat Index: 61°   Visibility: 10mi
Dew Point: 55°   Wind: 0mph
Humidity: 80%   Direction: NA
Pressure: 30.11"   Gusts: NA
Location:  29.7905°N, 94.3844°W
Report Text: KBMT 250035Z AUTO 00000KT 10SM CLR 16/13 A3011 RMK AO2 T01590125
Loading
Personal Weather Stations






























Interactive Weather Map
Tropical Storm Tracking
New forecast layout! Learn more

10-Day Weather Forecast

Advertisements
Track Severe Weather on mobile